sensor_id;sensor_type;location;lat;lon;timestamp;P1;durP1;ratioP1;P2;durP2;ratioP2
26914;SDS011;14480;52.608;13.416;2022-12-18T17:26:45;62.75;;;25.88;;
26914;SDS011;14480;52.608;13.416;2022-12-18T17:31:50;64.97;;;26.23;;
26914;SDS011;14480;52.608;13.416;2022-12-18T17:36:55;67.63;;;25.77;;
26914;SDS011;14480;52.608;13.416;2022-12-18T17:42:01;68.72;;;25.80;;
26914;SDS011;14480;52.608;13.416;2022-12-18T17:47:06;74.43;;;27.65;;
26914;SDS011;14480;52.608;13.416;2022-12-18T17:52:15;65.57;;;27.10;;
26914;SDS011;14480;52.608;13.416;2022-12-18T17:57:20;67.55;;;26.17;;
26914;SDS011;14480;52.608;13.416;2022-12-18T18:02:25;78.30;;;29.02;;
26914;SDS011;14480;52.608;13.416;2022-12-18T18:07:30;69.45;;;27.27;;
26914;SDS011;14480;52.608;13.416;2022-12-18T18:12:35;83.15;;;30.33;;
26914;SDS011;14480;52.608;13.416;2022-12-18T18:17:56;75.00;;;29.13;;
26914;SDS011;14480;52.608;13.416;2022-12-18T18:23:00;83.03;;;31.13;;
26914;SDS011;14480;52.608;13.416;2022-12-18T18:28:05;60.50;;;22.73;;
26914;SDS011;14480;52.608;13.416;2022-12-18T18:33:09;84.03;;;30.63;;
26914;SDS011;14480;52.608;13.416;2022-12-18T18:38:13;89.37;;;31.37;;
26914;SDS011;14480;52.608;13.416;2022-12-18T18:43:18;85.60;;;31.73;;
26914;SDS011;14480;52.608;13.416;2022-12-18T18:48:25;85.07;;;31.73;;
26914;SDS011;14480;52.608;13.416;2022-12-18T18:53:34;83.85;;;32.53;;
26914;SDS011;14480;52.608;13.416;2022-12-18T18:58:42;87.38;;;32.15;;
26914;SDS011;14480;52.608;13.416;2022-12-18T19:03:49;90.38;;;31.30;;
26914;SDS011;14480;52.608;13.416;2022-12-18T19:08:55;84.30;;;31.58;;
26914;SDS011;14480;52.608;13.416;2022-12-18T19:14:02;90.15;;;32.85;;
26914;SDS011;14480;52.608;13.416;2022-12-18T19:19:06;86.70;;;31.80;;
26914;SDS011;14480;52.608;13.416;2022-12-18T19:24:10;98.40;;;33.78;;
26914;SDS011;14480;52.608;13.416;2022-12-18T19:29:16;86.45;;;32.15;;
26914;SDS011;14480;52.608;13.416;2022-12-18T19:34:20;87.55;;;33.65;;
26914;SDS011;14480;52.608;13.416;2022-12-18T19:39:24;93.80;;;32.40;;
26914;SDS011;14480;52.608;13.416;2022-12-18T19:50:07;82.55;;;29.83;;
26914;SDS011;14480;52.608;13.416;2022-12-18T19:56:27;86.15;;;31.90;;
26914;SDS011;14480;52.608;13.416;2022-12-18T20:01:57;86.22;;;31.52;;
26914;SDS011;14480;52.608;13.416;2022-12-18T20:07:08;96.97;;;31.38;;
26914;SDS011;14480;52.608;13.416;2022-12-18T20:12:13;88.40;;;31.75;;
26914;SDS011;14480;52.608;13.416;2022-12-18T20:23:00;88.57;;;31.27;;
26914;SDS011;14480;52.608;13.416;2022-12-18T20:28:08;77.18;;;30.52;;
26914;SDS011;14480;52.608;13.416;2022-12-18T20:33:41;81.43;;;29.83;;
26914;SDS011;14480;52.608;13.416;2022-12-18T20:44:35;87.10;;;32.10;;
26914;SDS011;14480;52.608;13.416;2022-12-18T20:49:39;90.32;;;31.13;;
26914;SDS011;14480;52.608;13.416;2022-12-18T20:55:03;92.72;;;31.35;;
26914;SDS011;14480;52.608;13.416;2022-12-18T21:00:17;93.65;;;30.83;;
26914;SDS011;14480;52.608;13.416;2022-12-18T21:05:24;94.68;;;31.13;;
26914;SDS011;14480;52.608;13.416;2022-12-18T21:10:41;82.43;;;30.45;;
26914;SDS011;14480;52.608;13.416;2022-12-18T21:15:52;84.90;;;30.50;;
26914;SDS011;14480;52.608;13.416;2022-12-18T21:20:57;93.05;;;30.75;;
26914;SDS011;14480;52.608;13.416;2022-12-18T21:31:46;79.38;;;29.35;;
26914;SDS011;14480;52.608;13.416;2022-12-18T21:36:56;84.22;;;30.30;;
26914;SDS011;14480;52.608;13.416;2022-12-18T21:42:03;79.20;;;28.23;;
26914;SDS011;14480;52.608;13.416;2022-12-18T21:47:29;77.95;;;28.90;;
26914;SDS011;14480;52.608;13.416;2022-12-18T21:52:43;91.43;;;30.13;;
26914;SDS011;14480;52.608;13.416;2022-12-18T21:58:00;82.25;;;28.88;;
26914;SDS011;14480;52.608;13.416;2022-12-18T22:08:20;82.00;;;29.30;;
26914;SDS011;14480;52.608;13.416;2022-12-18T22:13:28;80.75;;;28.20;;
26914;SDS011;14480;52.608;13.416;2022-12-18T22:18:32;75.35;;;28.20;;
26914;SDS011;14480;52.608;13.416;2022-12-18T22:23:36;84.68;;;28.92;;
26914;SDS011;14480;52.608;13.416;2022-12-18T22:28:42;82.97;;;29.02;;
26914;SDS011;14480;52.608;13.416;2022-12-18T22:34:04;78.25;;;27.00;;
26914;SDS011;14480;52.608;13.416;2022-12-18T22:39:15;74.40;;;27.85;;
